sensor_id;sensor_type;location;lat;lon;timestamp;P1;durP1;ratioP1;P2;durP2;ratioP2
65033;SDS011;51601;51.356;12.458;2022-07-29T00:02:22;5.97;;;2.20;;
65033;SDS011;51601;51.356;12.458;2022-07-29T00:06:36;8.90;;;2.53;;
65033;SDS011;51601;51.356;12.458;2022-07-29T00:10:50;10.52;;;2.80;;
65033;SDS011;51601;51.356;12.458;2022-07-29T00:15:04;7.60;;;2.47;;
65033;SDS011;51601;51.356;12.458;2022-07-29T00:19:20;7.40;;;2.00;;
65033;SDS011;51601;51.356;12.458;2022-07-29T00:23:34;7.97;;;2.50;;
65033;SDS011;51601;51.356;12.458;2022-07-29T00:27:48;6.75;;;2.40;;
65033;SDS011;51601;51.356;12.458;2022-07-29T00:32:02;8.60;;;2.27;;
65033;SDS011;51601;51.356;12.458;2022-07-29T00:36:18;9.30;;;2.75;;
65033;SDS011;51601;51.356;12.458;2022-07-29T00:40:32;7.38;;;2.20;;
65033;SDS011;51601;51.356;12.458;2022-07-29T00:44:46;6.50;;;2.60;;
65033;SDS011;51601;51.356;12.458;2022-07-29T00:49:00;6.82;;;2.13;;
65033;SDS011;51601;51.356;12.458;2022-07-29T00:53:15;6.93;;;2.25;;
65033;SDS011;51601;51.356;12.458;2022-07-29T00:57:29;9.37;;;2.20;;
65033;SDS011;51601;51.356;12.458;2022-07-29T01:01:43;11.55;;;2.53;;
65033;SDS011;51601;51.356;12.458;2022-07-29T01:05:57;8.30;;;2.60;;
65033;SDS011;51601;51.356;12.458;2022-07-29T01:10:13;8.10;;;2.58;;
65033;SDS011;51601;51.356;12.458;2022-07-29T01:14:28;9.20;;;2.37;;
65033;SDS011;51601;51.356;12.458;2022-07-29T01:18:44;6.72;;;2.60;;
65033;SDS011;51601;51.356;12.458;2022-07-29T01:27:47;6.80;;;2.63;;
65033;SDS011;51601;51.356;12.458;2022-07-29T01:32:18;7.35;;;2.42;;
65033;SDS011;51601;51.356;12.458;2022-07-29T01:36:42;6.95;;;2.63;;
65033;SDS011;51601;51.356;12.458;2022-07-29T01:40:58;9.10;;;2.63;;
65033;SDS011;51601;51.356;12.458;2022-07-29T01:45:18;8.50;;;2.38;;
65033;SDS011;51601;51.356;12.458;2022-07-29T01:49:39;10.93;;;2.80;;
65033;SDS011;51601;51.356;12.458;2022-07-29T01:54:01;8.38;;;2.80;;
65033;SDS011;51601;51.356;12.458;2022-07-29T01:58:19;6.40;;;2.63;;
65033;SDS011;51601;51.356;12.458;2022-07-29T02:02:35;7.75;;;2.42;;
65033;SDS011;51601;51.356;12.458;2022-07-29T02:06:52;7.22;;;2.50;;
65033;SDS011;51601;51.356;12.458;2022-07-29T02:11:10;7.57;;;2.60;;
65033;SDS011;51601;51.356;12.458;2022-07-29T02:15:25;6.97;;;2.85;;
65033;SDS011;51601;51.356;12.458;2022-07-29T02:19:42;7.75;;;2.97;;
65033;SDS011;51601;51.356;12.458;2022-07-29T02:23:59;6.70;;;2.57;;
65033;SDS011;51601;51.356;12.458;2022-07-29T02:28:14;7.72;;;2.63;;
65033;SDS011;51601;51.356;12.458;2022-07-29T02:32:30;7.35;;;2.60;;
65033;SDS011;51601;51.356;12.458;2022-07-29T02:36:47;10.45;;;2.40;;
65033;SDS011;51601;51.356;12.458;2022-07-29T02:41:05;7.50;;;2.43;;
65033;SDS011;51601;51.356;12.458;2022-07-29T02:45:23;6.15;;;2.60;;
65033;SDS011;51601;51.356;12.458;2022-07-29T02:49:38;7.32;;;2.70;;
65033;SDS011;51601;51.356;12.458;2022-07-29T02:53:56;6.40;;;2.70;;
65033;SDS011;51601;51.356;12.458;2022-07-29T02:58:14;6.45;;;2.47;;
65033;SDS011;51601;51.356;12.458;2022-07-29T03:02:35;8.65;;;2.42;;
65033;SDS011;51601;51.356;12.458;2022-07-29T03:06:51;7.20;;;2.50;;
65033;SDS011;51601;51.356;12.458;2022-07-29T03:11:06;7.50;;;2.58;;
65033;SDS011;51601;51.356;12.458;2022-07-29T03:15:23;6.50;;;2.60;;
65033;SDS011;51601;51.356;12.458;2022-07-29T03:19:38;7.90;;;2.35;;
65033;SDS011;51601;51.356;12.458;2022-07-29T03:23:52;5.63;;;2.40;;
65033;SDS011;51601;51.356;12.458;2022-07-29T03:28:06;9.00;;;3.03;;
65033;SDS011;51601;51.356;12.458;2022-07-29T03:32:21;6.32;;;2.58;;
65033;SDS011;51601;51.356;12.458;2022-07-29T03:36:36;6.63;;;2.30;;
65033;SDS011;51601;51.356;12.458;2022-07-29T03:40:51;7.70;;;2.83;;
65033;SDS011;51601;51.356;12.458;2022-07-29T03:45:09;8.57;;;2.90;;
65033;SDS011;51601;51.356;12.458;2022-07-29T03:49:28;8.17;;;3.40;;
65033;SDS011;51601;51.356;12.458;2022-07-29T03:53:43;9.18;;;3.00;;
65033;SDS011;51601;51.356;12.458;2022-07-29T03:57:57;8.13;;;3.20;;
65033;SDS011;51601;51.356;12.458;2022-07-29T04:02:13;9.85;;;2.55;;
65033;SDS011;51601;51.356;12.458;2022-07-29T04:06:38;9.00;;;2.67;;
65033;SDS011;51601;51.356;12.458;2022-07-29T04:10:53;8.23;;;2.70;;
65033;SDS011;51601;51.356;12.458;2022-07-29T04:15:07;6.35;;;2.63;;
65033;SDS011;51601;51.356;12.458;2022-07-29T04:19:22;7.13;;;2.83;;
65033;SDS011;51601;51.356;12.458;2022-07-29T04:23:37;7.15;;;3.30;;
65033;SDS011;51601;51.356;12.458;2022-07-29T04:28:04;8.63;;;3.17;;
65033;SDS011;51601;51.356;12.458;2022-07-29T04:32:18;7.13;;;3.30;;
65033;SDS011;51601;51.356;12.458;2022-07-29T04:36:32;7.85;;;3.03;;
65033;SDS011;51601;51.356;12.458;2022-07-29T04:40:48;8.93;;;3.83;;
65033;SDS011;51601;51.356;12.458;2022-07-29T04:45:02;9.30;;;3.22;;
65033;SDS011;51601;51.356;12.458;2022-07-29T04:49:18;9.03;;;3.10;;
65033;SDS011;51601;51.356;12.458;2022-07-29T04:53:32;8.23;;;3.17;;
65033;SDS011;51601;51.356;12.458;2022-07-29T04:57:47;9.10;;;3.67;;
65033;SDS011;51601;51.356;12.458;2022-07-29T05:02:01;7.60;;;3.60;;
65033;SDS011;51601;51.356;12.458;2022-07-29T05:06:15;9.27;;;3.58;;
65033;SDS011;51601;51.356;12.458;2022-07-29T05:10:28;8.68;;;3.35;;
65033;SDS011;51601;51.356;12.458;2022-07-29T05:14:44;8.23;;;3.50;;
65033;SDS011;51601;51.356;12.458;2022-07-29T05:18:57;8.55;;;3.50;;
65033;SDS011;51601;51.356;12.458;2022-07-29T05:23:12;8.93;;;3.55;;
65033;SDS011;51601;51.356;12.458;2022-07-29T05:27:26;9.52;;;3.33;;
65033;SDS011;51601;51.356;12.458;2022-07-29T05:31:41;9.53;;;3.77;;
65033;SDS011;51601;51.356;12.458;2022-07-29T05:35:55;9.32;;;3.85;;
65033;SDS011;51601;51.356;12.458;2022-07-29T05:40:11;8.55;;;3.50;;
65033;SDS011;51601;51.356;12.458;2022-07-29T05:44:26;11.80;;;3.70;;
65033;SDS011;51601;51.356;12.458;2022-07-29T05:48:41;9.70;;;3.20;;
65033;SDS011;51601;51.356;12.458;2022-07-29T05:52:55;8.48;;;3.75;;
65033;SDS011;51601;51.356;12.458;2022-07-29T05:57:14;10.50;;;3.70;;
65033;SDS011;51601;51.356;12.458;2022-07-29T06:01:28;9.93;;;3.25;;
65033;SDS011;51601;51.356;12.458;2022-07-29T06:05:45;11.35;;;3.70;;
65033;SDS011;51601;51.356;12.458;2022-07-29T06:09:58;9.95;;;3.60;;
65033;SDS011;51601;51.356;12.458;2022-07-29T06:14:12;9.70;;;3.20;;
65033;SDS011;51601;51.356;12.458;2022-07-29T06:18:27;14.68;;;4.05;;
65033;SDS011;51601;51.356;12.458;2022-07-29T06:22:42;8.93;;;3.60;;
65033;SDS011;51601;51.356;12.458;2022-07-29T06:26:56;10.80;;;3.93;;
65033;SDS011;51601;51.356;12.458;2022-07-29T06:31:10;7.95;;;3.45;;
65033;SDS011;51601;51.356;12.458;2022-07-29T06:35:23;10.68;;;4.15;;
65033;SDS011;51601;51.356;12.458;2022-07-29T06:39:54;12.53;;;4.10;;
65033;SDS011;51601;51.356;12.458;2022-07-29T06:44:22;11.95;;;4.05;;
65033;SDS011;51601;51.356;12.458;2022-07-29T06:48:36;10.48;;;4.57;;
65033;SDS011;51601;51.356;12.458;2022-07-29T06:52:50;11.10;;;3.72;;
65033;SDS011;51601;51.356;12.458;2022-07-29T06:57:05;12.13;;;4.03;;
65033;SDS011;51601;51.356;12.458;2022-07-29T07:01:19;11.90;;;4.13;;
65033;SDS011;51601;51.356;12.458;2022-07-29T07:05:33;11.25;;;3.60;;
65033;SDS011;51601;51.356;12.458;2022-07-29T07:09:47;9.80;;;3.90;;
65033;SDS011;51601;51.356;12.458;2022-07-29T07:14:02;12.73;;;3.70;;
65033;SDS011;51601;51.356;12.458;2022-07-29T07:18:16;10.52;;;3.20;;
65033;SDS011;51601;51.356;12.458;2022-07-29T07:22:30;9.27;;;3.33;;
65033;SDS011;51601;51.356;12.458;2022-07-29T07:26:49;10.90;;;3.47;;
65033;SDS011;51601;51.356;12.458;2022-07-29T07:31:05;10.95;;;3.17;;
65033;SDS011;51601;51.356;12.458;2022-07-29T07:35:18;11.32;;;3.83;;
65033;SDS011;51601;51.356;12.458;2022-07-29T07:39:32;9.53;;;3.20;;
65033;SDS011;51601;51.356;12.458;2022-07-29T07:43:46;14.40;;;3.55;;
65033;SDS011;51601;51.356;12.458;2022-07-29T07:48:02;12.25;;;3.90;;
65033;SDS011;51601;51.356;12.458;2022-07-29T07:52:16;9.53;;;3.63;;
65033;SDS011;51601;51.356;12.458;2022-07-29T07:56:31;10.15;;;4.22;;
65033;SDS011;51601;51.356;12.458;2022-07-29T08:00:46;11.10;;;3.72;;
65033;SDS011;51601;51.356;12.458;2022-07-29T08:05:01;14.17;;;6.47;;
65033;SDS011;51601;51.356;12.458;2022-07-29T08:09:15;9.07;;;3.45;;
65033;SDS011;51601;51.356;12.458;2022-07-29T08:13:40;10.80;;;3.38;;
65033;SDS011;51601;51.356;12.458;2022-07-29T08:17:54;11.77;;;3.55;;
65033;SDS011;51601;51.356;12.458;2022-07-29T08:22:09;10.07;;;3.30;;
65033;SDS011;51601;51.356;12.458;2022-07-29T08:26:23;10.73;;;4.60;;
65033;SDS011;51601;51.356;12.458;2022-07-29T08:30:37;9.50;;;3.20;;
65033;SDS011;51601;51.356;12.458;2022-07-29T08:34:51;10.30;;;3.43;;
65033;SDS011;51601;51.356;12.458;2022-07-29T08:39:06;12.10;;;3.20;;
65033;SDS011;51601;51.356;12.458;2022-07-29T08:43:20;12.40;;;3.67;;
65033;SDS011;51601;51.356;12.458;2022-07-29T08:47:34;13.43;;;4.00;;
65033;SDS011;51601;51.356;12.458;2022-07-29T08:51:50;14.02;;;5.63;;
65033;SDS011;51601;51.356;12.458;2022-07-29T08:56:07;10.27;;;4.57;;
65033;SDS011;51601;51.356;12.458;2022-07-29T09:00:24;9.77;;;4.70;;
65033;SDS011;51601;51.356;12.458;2022-07-29T09:04:39;12.70;;;5.23;;
65033;SDS011;51601;51.356;12.458;2022-07-29T09:08:53;11.55;;;5.25;;
65033;SDS011;51601;51.356;12.458;2022-07-29T09:13:10;12.02;;;5.43;;
65033;SDS011;51601;51.356;12.458;2022-07-29T09:17:39;12.57;;;5.40;;
65033;SDS011;51601;51.356;12.458;2022-07-29T09:21:55;12.75;;;5.13;;
65033;SDS011;51601;51.356;12.458;2022-07-29T09:26:14;12.10;;;5.10;;
65033;SDS011;51601;51.356;12.458;2022-07-29T09:30:30;10.73;;;5.10;;
65033;SDS011;51601;51.356;12.458;2022-07-29T09:34:43;9.50;;;4.88;;
65033;SDS011;51601;51.356;12.458;2022-07-29T09:38:57;13.95;;;4.63;;
65033;SDS011;51601;51.356;12.458;2022-07-29T09:43:13;9.95;;;4.40;;
65033;SDS011;51601;51.356;12.458;2022-07-29T09:47:40;11.90;;;4.40;;
65033;SDS011;51601;51.356;12.458;2022-07-29T09:52:07;7.78;;;3.90;;
65033;SDS011;51601;51.356;12.458;2022-07-29T09:56:36;9.15;;;4.53;;
65033;SDS011;51601;51.356;12.458;2022-07-29T10:00:52;10.40;;;3.80;;
65033;SDS011;51601;51.356;12.458;2022-07-29T10:05:16;9.57;;;3.67;;
65033;SDS011;51601;51.356;12.458;2022-07-29T10:09:31;10.50;;;3.90;;
65033;SDS011;51601;51.356;12.458;2022-07-29T10:13:47;9.83;;;3.47;;
65033;SDS011;51601;51.356;12.458;2022-07-29T10:18:01;9.45;;;3.30;;
65033;SDS011;51601;51.356;12.458;2022-07-29T10:22:17;9.68;;;3.55;;
65033;SDS011;51601;51.356;12.458;2022-07-29T10:26:51;8.15;;;3.00;;
65033;SDS011;51601;51.356;12.458;2022-07-29T10:31:08;9.10;;;3.40;;
65033;SDS011;51601;51.356;12.458;2022-07-29T10:35:35;8.35;;;3.42;;
65033;SDS011;51601;51.356;12.458;2022-07-29T10:40:00;8.75;;;3.05;;
65033;SDS011;51601;51.356;12.458;2022-07-29T10:44:39;9.27;;;3.07;;
65033;SDS011;51601;51.356;12.458;2022-07-29T10:49:04;8.10;;;3.13;;
65033;SDS011;51601;51.356;12.458;2022-07-29T10:58:13;7.70;;;3.20;;
65033;SDS011;51601;51.356;12.458;2022-07-29T11:02:43;8.68;;;3.08;;
65033;SDS011;51601;51.356;12.458;2022-07-29T11:07:07;8.77;;;3.10;;
65033;SDS011;51601;51.356;12.458;2022-07-29T11:11:30;10.65;;;3.60;;
65033;SDS011;51601;51.356;12.458;2022-07-29T11:15:53;9.77;;;3.77;;
65033;SDS011;51601;51.356;12.458;2022-07-29T11:24:58;12.82;;;3.95;;
65033;SDS011;51601;51.356;12.458;2022-07-29T11:29:27;9.00;;;4.13;;
65033;SDS011;51601;51.356;12.458;2022-07-29T11:33:52;10.05;;;4.57;;
65033;SDS011;51601;51.356;12.458;2022-07-29T11:38:23;9.15;;;4.05;;
65033;SDS011;51601;51.356;12.458;2022-07-29T11:42:45;11.63;;;4.27;;
65033;SDS011;51601;51.356;12.458;2022-07-29T11:47:03;11.75;;;3.72;;
65033;SDS011;51601;51.356;12.458;2022-07-29T11:51:19;11.00;;;4.07;;
65033;SDS011;51601;51.356;12.458;2022-07-29T11:55:44;12.55;;;4.25;;
65033;SDS011;51601;51.356;12.458;2022-07-29T12:00:03;9.93;;;3.80;;
65033;SDS011;51601;51.356;12.458;2022-07-29T12:04:23;9.18;;;3.90;;
65033;SDS011;51601;51.356;12.458;2022-07-29T12:08:41;10.15;;;4.00;;
65033;SDS011;51601;51.356;12.458;2022-07-29T12:12:56;10.67;;;3.90;;
65033;SDS011;51601;51.356;12.458;2022-07-29T12:17:24;11.00;;;4.13;;
65033;SDS011;51601;51.356;12.458;2022-07-29T12:21:44;12.95;;;4.10;;
65033;SDS011;51601;51.356;12.458;2022-07-29T12:26:08;10.70;;;4.37;;
65033;SDS011;51601;51.356;12.458;2022-07-29T12:30:37;10.82;;;3.90;;
65033;SDS011;51601;51.356;12.458;2022-07-29T12:34:55;9.80;;;4.25;;
65033;SDS011;51601;51.356;12.458;2022-07-29T12:39:09;9.10;;;4.50;;
65033;SDS011;51601;51.356;12.458;2022-07-29T12:43:25;11.40;;;4.70;;
65033;SDS011;51601;51.356;12.458;2022-07-29T12:52:23;10.40;;;4.50;;
65033;SDS011;51601;51.356;12.458;2022-07-29T12:56:42;9.30;;;4.77;;
65033;SDS011;51601;51.356;12.458;2022-07-29T13:01:05;10.80;;;4.57;;
65033;SDS011;51601;51.356;12.458;2022-07-29T13:05:41;10.52;;;4.85;;
65033;SDS011;51601;51.356;12.458;2022-07-29T13:10:10;9.33;;;4.60;;
65033;SDS011;51601;51.356;12.458;2022-07-29T13:14:30;10.85;;;4.60;;
65033;SDS011;51601;51.356;12.458;2022-07-29T13:18:46;10.95;;;4.60;;
65033;SDS011;51601;51.356;12.458;2022-07-29T13:23:00;10.25;;;4.50;;
65033;SDS011;51601;51.356;12.458;2022-07-29T13:27:14;10.07;;;4.80;;
65033;SDS011;51601;51.356;12.458;2022-07-29T13:31:28;10.60;;;4.72;;
65033;SDS011;51601;51.356;12.458;2022-07-29T13:35:43;8.85;;;4.47;;
65033;SDS011;51601;51.356;12.458;2022-07-29T13:39:59;10.80;;;4.80;;
65033;SDS011;51601;51.356;12.458;2022-07-29T13:44:14;9.30;;;4.53;;
65033;SDS011;51601;51.356;12.458;2022-07-29T13:48:28;11.13;;;4.57;;
65033;SDS011;51601;51.356;12.458;2022-07-29T13:52:44;10.70;;;4.50;;
65033;SDS011;51601;51.356;12.458;2022-07-29T13:56:59;8.63;;;4.15;;
65033;SDS011;51601;51.356;12.458;2022-07-29T14:01:13;9.27;;;4.60;;
65033;SDS011;51601;51.356;12.458;2022-07-29T14:05:27;8.82;;;4.60;;
65033;SDS011;51601;51.356;12.458;2022-07-29T14:09:42;10.13;;;4.90;;
65033;SDS011;51601;51.356;12.458;2022-07-29T14:13:56;11.55;;;5.13;;
65033;SDS011;51601;51.356;12.458;2022-07-29T14:18:10;9.32;;;4.38;;
65033;SDS011;51601;51.356;12.458;2022-07-29T14:22:24;9.07;;;4.77;;
65033;SDS011;51601;51.356;12.458;2022-07-29T14:26:39;9.50;;;4.38;;
65033;SDS011;51601;51.356;12.458;2022-07-29T14:30:57;13.48;;;4.90;;
65033;SDS011;51601;51.356;12.458;2022-07-29T14:35:12;8.57;;;4.30;;
65033;SDS011;51601;51.356;12.458;2022-07-29T14:39:26;8.80;;;4.60;;
65033;SDS011;51601;51.356;12.458;2022-07-29T14:43:44;10.45;;;4.88;;
65033;SDS011;51601;51.356;12.458;2022-07-29T14:47:58;9.85;;;4.60;;
65033;SDS011;51601;51.356;12.458;2022-07-29T14:52:12;10.80;;;4.80;;
65033;SDS011;51601;51.356;12.458;2022-07-29T14:56:26;8.57;;;4.60;;
65033;SDS011;51601;51.356;12.458;2022-07-29T15:00:59;12.65;;;4.68;;
65033;SDS011;51601;51.356;12.458;2022-07-29T15:05:13;9.17;;;4.53;;
65033;SDS011;51601;51.356;12.458;2022-07-29T15:09:27;12.13;;;5.50;;
65033;SDS011;51601;51.356;12.458;2022-07-29T15:13:40;9.98;;;4.90;;
65033;SDS011;51601;51.356;12.458;2022-07-29T15:17:55;8.57;;;4.63;;
65033;SDS011;51601;51.356;12.458;2022-07-29T15:22:09;9.20;;;4.70;;
65033;SDS011;51601;51.356;12.458;2022-07-29T15:26:23;9.02;;;4.90;;
65033;SDS011;51601;51.356;12.458;2022-07-29T15:30:37;12.18;;;4.72;;
65033;SDS011;51601;51.356;12.458;2022-07-29T15:34:54;9.33;;;4.70;;
65033;SDS011;51601;51.356;12.458;2022-07-29T15:39:08;9.07;;;5.15;;
65033;SDS011;51601;51.356;12.458;2022-07-29T15:43:22;11.63;;;5.88;;
65033;SDS011;51601;51.356;12.458;2022-07-29T15:47:37;7.97;;;3.43;;
65033;SDS011;51601;51.356;12.458;2022-07-29T15:51:52;8.73;;;3.47;;
65033;SDS011;51601;51.356;12.458;2022-07-29T15:56:10;6.95;;;3.75;;
65033;SDS011;51601;51.356;12.458;2022-07-29T16:00:25;8.93;;;4.83;;
65033;SDS011;51601;51.356;12.458;2022-07-29T16:04:40;6.28;;;3.17;;
65033;SDS011;51601;51.356;12.458;2022-07-29T16:08:55;5.18;;;2.47;;
65033;SDS011;51601;51.356;12.458;2022-07-29T16:13:09;7.80;;;3.30;;
65033;SDS011;51601;51.356;12.458;2022-07-29T16:17:29;6.00;;;2.77;;
65033;SDS011;51601;51.356;12.458;2022-07-29T16:21:43;6.55;;;3.53;;
65033;SDS011;51601;51.356;12.458;2022-07-29T16:25:58;7.15;;;3.60;;
65033;SDS011;51601;51.356;12.458;2022-07-29T16:30:12;7.10;;;3.87;;
65033;SDS011;51601;51.356;12.458;2022-07-29T16:34:26;8.50;;;4.00;;
65033;SDS011;51601;51.356;12.458;2022-07-29T16:38:40;7.65;;;3.80;;
65033;SDS011;51601;51.356;12.458;2022-07-29T16:43:00;8.00;;;4.10;;
65033;SDS011;51601;51.356;12.458;2022-07-29T16:47:13;6.57;;;2.63;;
65033;SDS011;51601;51.356;12.458;2022-07-29T16:51:29;9.52;;;4.32;;
65033;SDS011;51601;51.356;12.458;2022-07-29T16:55:44;8.05;;;4.32;;
65033;SDS011;51601;51.356;12.458;2022-07-29T16:59:59;9.20;;;3.27;;
65033;SDS011;51601;51.356;12.458;2022-07-29T17:04:12;9.70;;;4.35;;
65033;SDS011;51601;51.356;12.458;2022-07-29T17:08:26;7.18;;;3.90;;
65033;SDS011;51601;51.356;12.458;2022-07-29T17:12:40;6.90;;;3.80;;
65033;SDS011;51601;51.356;12.458;2022-07-29T17:16:56;6.88;;;3.92;;
65033;SDS011;51601;51.356;12.458;2022-07-29T17:21:14;8.18;;;4.13;;
65033;SDS011;51601;51.356;12.458;2022-07-29T17:25:28;6.40;;;4.10;;
65033;SDS011;51601;51.356;12.458;2022-07-29T17:29:44;6.90;;;4.35;;
65033;SDS011;51601;51.356;12.458;2022-07-29T17:34:00;7.40;;;4.30;;
65033;SDS011;51601;51.356;12.458;2022-07-29T17:38:14;6.97;;;4.10;;
65033;SDS011;51601;51.356;12.458;2022-07-29T17:42:28;7.40;;;4.20;;
65033;SDS011;51601;51.356;12.458;2022-07-29T17:46:41;9.10;;;4.93;;
65033;SDS011;51601;51.356;12.458;2022-07-29T17:50:57;8.27;;;3.88;;
65033;SDS011;51601;51.356;12.458;2022-07-29T17:55:11;6.77;;;4.17;;
65033;SDS011;51601;51.356;12.458;2022-07-29T17:59:25;8.60;;;4.40;;
65033;SDS011;51601;51.356;12.458;2022-07-29T18:03:40;8.30;;;4.32;;
65033;SDS011;51601;51.356;12.458;2022-07-29T18:07:55;8.47;;;5.23;;
65033;SDS011;51601;51.356;12.458;2022-07-29T18:12:09;7.07;;;4.32;;
65033;SDS011;51601;51.356;12.458;2022-07-29T18:16:23;7.68;;;4.35;;
65033;SDS011;51601;51.356;12.458;2022-07-29T18:20:37;7.00;;;4.30;;
65033;SDS011;51601;51.356;12.458;2022-07-29T18:24:52;8.77;;;5.10;;
65033;SDS011;51601;51.356;12.458;2022-07-29T18:29:06;7.53;;;4.50;;
65033;SDS011;51601;51.356;12.458;2022-07-29T18:33:21;7.05;;;3.97;;
65033;SDS011;51601;51.356;12.458;2022-07-29T18:37:35;6.90;;;4.30;;
65033;SDS011;51601;51.356;12.458;2022-07-29T18:42:11;8.95;;;4.60;;
65033;SDS011;51601;51.356;12.458;2022-07-29T18:46:25;9.65;;;4.20;;
65033;SDS011;51601;51.356;12.458;2022-07-29T18:50:39;10.57;;;4.77;;
65033;SDS011;51601;51.356;12.458;2022-07-29T18:54:53;8.80;;;4.72;;
65033;SDS011;51601;51.356;12.458;2022-07-29T18:59:08;8.25;;;4.85;;
65033;SDS011;51601;51.356;12.458;2022-07-29T19:03:23;11.05;;;5.18;;
65033;SDS011;51601;51.356;12.458;2022-07-29T19:07:39;11.97;;;5.67;;
65033;SDS011;51601;51.356;12.458;2022-07-29T19:11:53;15.35;;;5.70;;
65033;SDS011;51601;51.356;12.458;2022-07-29T19:16:16;14.40;;;5.63;;
65033;SDS011;51601;51.356;12.458;2022-07-29T19:20:30;15.30;;;6.10;;
65033;SDS011;51601;51.356;12.458;2022-07-29T19:24:44;17.65;;;6.03;;
65033;SDS011;51601;51.356;12.458;2022-07-29T19:28:58;13.02;;;5.28;;
65033;SDS011;51601;51.356;12.458;2022-07-29T19:33:13;12.23;;;5.40;;
65033;SDS011;51601;51.356;12.458;2022-07-29T19:37:28;15.07;;;5.28;;
65033;SDS011;51601;51.356;12.458;2022-07-29T19:41:42;12.10;;;5.50;;
65033;SDS011;51601;51.356;12.458;2022-07-29T19:45:56;16.77;;;5.57;;
65033;SDS011;51601;51.356;12.458;2022-07-29T19:50:11;9.23;;;5.10;;
65033;SDS011;51601;51.356;12.458;2022-07-29T19:54:25;11.52;;;6.00;;
65033;SDS011;51601;51.356;12.458;2022-07-29T19:58:39;10.05;;;5.95;;
65033;SDS011;51601;51.356;12.458;2022-07-29T20:02:54;10.37;;;6.07;;
65033;SDS011;51601;51.356;12.458;2022-07-29T20:07:10;10.10;;;5.45;;
65033;SDS011;51601;51.356;12.458;2022-07-29T20:11:24;9.98;;;5.65;;
65033;SDS011;51601;51.356;12.458;2022-07-29T20:15:40;10.83;;;5.93;;
65033;SDS011;51601;51.356;12.458;2022-07-29T20:19:54;9.10;;;5.57;;
65033;SDS011;51601;51.356;12.458;2022-07-29T20:24:12;9.93;;;5.57;;
65033;SDS011;51601;51.356;12.458;2022-07-29T20:28:26;8.40;;;5.50;;
65033;SDS011;51601;51.356;12.458;2022-07-29T20:32:39;8.70;;;5.23;;
65033;SDS011;51601;51.356;12.458;2022-07-29T20:36:54;7.63;;;5.28;;
65033;SDS011;51601;51.356;12.458;2022-07-29T20:41:10;11.82;;;5.70;;
65033;SDS011;51601;51.356;12.458;2022-07-29T20:45:25;11.17;;;5.43;;
65033;SDS011;51601;51.356;12.458;2022-07-29T20:49:39;10.38;;;5.80;;
65033;SDS011;51601;51.356;12.458;2022-07-29T20:53:53;9.55;;;5.50;;
65033;SDS011;51601;51.356;12.458;2022-07-29T20:58:08;9.67;;;5.37;;
65033;SDS011;51601;51.356;12.458;2022-07-29T21:02:22;10.43;;;5.93;;
65033;SDS011;51601;51.356;12.458;2022-07-29T21:06:36;9.38;;;5.90;;
65033;SDS011;51601;51.356;12.458;2022-07-29T21:10:49;11.40;;;5.63;;
65033;SDS011;51601;51.356;12.458;2022-07-29T21:15:05;11.03;;;5.00;;
65033;SDS011;51601;51.356;12.458;2022-07-29T21:19:24;9.48;;;5.32;;
65033;SDS011;51601;51.356;12.458;2022-07-29T21:23:38;9.50;;;5.00;;
65033;SDS011;51601;51.356;12.458;2022-07-29T21:27:52;9.37;;;4.77;;
65033;SDS011;51601;51.356;12.458;2022-07-29T21:32:25;8.68;;;5.20;;
65033;SDS011;51601;51.356;12.458;2022-07-29T21:36:41;8.30;;;5.05;;
65033;SDS011;51601;51.356;12.458;2022-07-29T21:41:09;9.03;;;5.60;;
65033;SDS011;51601;51.356;12.458;2022-07-29T21:45:25;11.30;;;5.80;;
65033;SDS011;51601;51.356;12.458;2022-07-29T21:49:40;9.80;;;5.28;;
65033;SDS011;51601;51.356;12.458;2022-07-29T21:53:55;10.85;;;6.25;;
65033;SDS011;51601;51.356;12.458;2022-07-29T21:58:09;12.03;;;5.63;;
65033;SDS011;51601;51.356;12.458;2022-07-29T22:02:26;9.60;;;5.57;;
65033;SDS011;51601;51.356;12.458;2022-07-29T22:06:41;9.38;;;5.40;;
65033;SDS011;51601;51.356;12.458;2022-07-29T22:10:54;9.23;;;5.63;;
65033;SDS011;51601;51.356;12.458;2022-07-29T22:15:09;9.48;;;6.00;;
65033;SDS011;51601;51.356;12.458;2022-07-29T22:19:25;10.18;;;6.18;;
65033;SDS011;51601;51.356;12.458;2022-07-29T22:23:42;9.13;;;5.27;;
65033;SDS011;51601;51.356;12.458;2022-07-29T22:27:56;9.27;;;5.63;;
65033;SDS011;51601;51.356;12.458;2022-07-29T22:32:10;8.18;;;5.05;;
65033;SDS011;51601;51.356;12.458;2022-07-29T22:36:24;10.27;;;5.28;;
65033;SDS011;51601;51.356;12.458;2022-07-29T22:40:39;11.20;;;5.30;;
65033;SDS011;51601;51.356;12.458;2022-07-29T22:44:54;9.93;;;5.68;;
65033;SDS011;51601;51.356;12.458;2022-07-29T22:49:08;9.98;;;5.30;;
65033;SDS011;51601;51.356;12.458;2022-07-29T22:53:22;9.30;;;5.83;;
65033;SDS011;51601;51.356;12.458;2022-07-29T22:57:38;8.15;;;5.50;;
65033;SDS011;51601;51.356;12.458;2022-07-29T23:01:52;10.43;;;5.43;;
65033;SDS011;51601;51.356;12.458;2022-07-29T23:06:06;9.60;;;5.63;;
65033;SDS011;51601;51.356;12.458;2022-07-29T23:10:20;9.25;;;5.07;;
65033;SDS011;51601;51.356;12.458;2022-07-29T23:14:35;9.25;;;5.13;;
65033;SDS011;51601;51.356;12.458;2022-07-29T23:18:49;9.85;;;5.30;;
65033;SDS011;51601;51.356;12.458;2022-07-29T23:23:03;9.57;;;5.80;;
65033;SDS011;51601;51.356;12.458;2022-07-29T23:27:17;9.40;;;5.28;;
65033;SDS011;51601;51.356;12.458;2022-07-29T23:31:32;8.77;;;5.30;;
65033;SDS011;51601;51.356;12.458;2022-07-29T23:35:52;11.07;;;6.00;;
65033;SDS011;51601;51.356;12.458;2022-07-29T23:40:07;10.25;;;6.05;;
65033;SDS011;51601;51.356;12.458;2022-07-29T23:44:25;10.43;;;6.18;;
65033;SDS011;51601;51.356;12.458;2022-07-29T23:48:40;11.03;;;6.93;;
65033;SDS011;51601;51.356;12.458;2022-07-29T23:52:54;12.98;;;7.35;;
65033;SDS011;51601;51.356;12.458;2022-07-29T23:57:08;12.27;;;7.65;;
